Terminal Aerodrome Forecast
Issued by NWS

Home | Current Version | Previous Version | Text Only | Print | Product List | Glossary On
Versions: 1 2 3 4 5 6 7 8 9 10 11 12 13 14 15
060
FTUS45 KTFX 271720
TAFGTF
TAF
KGTF 271720Z 2718/2818 27012KT P6SM VCSH SCT040 BKN140
     FM271900 24007KT P6SM VCSH SCT050 BKN150
     FM272200 24007KT P6SM FEW080 SCT150
     FM281300 26011KT P6SM FEW200=

USA.gov is the U.S. government's official web portal to all federal, state and local government web resources and services.